sensor_id;sensor_type;location;lat;lon;timestamp;P1;P2;P0
29062;PMS5003;71206;48.564;-123.458;2024-02-23T00:00:42;5;5;
29062;PMS5003;71206;48.564;-123.458;2024-02-23T00:03:09;4;3;
29062;PMS5003;71206;48.564;-123.458;2024-02-23T00:05:40;5;4;
29062;PMS5003;71206;48.564;-123.458;2024-02-23T00:07:57;4;4;
29062;PMS5003;71206;48.564;-123.458;2024-02-23T00:10:22;5;5;
29062;PMS5003;71206;48.564;-123.458;2024-02-23T00:12:47;3;3;
29062;PMS5003;71206;48.564;-123.458;2024-02-23T00:15:12;7;7;
29062;PMS5003;71206;48.564;-123.458;2024-02-23T00:17:38;5;4;
29062;PMS5003;71206;48.564;-123.458;2024-02-23T00:20:02;14;11;
29062;PMS5003;71206;48.564;-123.458;2024-02-23T00:22:27;7;6;
29062;PMS5003;71206;48.564;-123.458;2024-02-23T00:24:53;6;5;
29062;PMS5003;71206;48.564;-123.458;2024-02-23T00:27:18;7;6;
29062;PMS5003;71206;48.564;-123.458;2024-02-23T00:29:43;12;10;
29062;PMS5003;71206;48.564;-123.458;2024-02-23T00:32:12;14;10;
29062;PMS5003;71206;48.564;-123.458;2024-02-23T00:34:33;5;3;
29062;PMS5003;71206;48.564;-123.458;2024-02-23T00:36:58;2;2;
29062;PMS5003;71206;48.564;-123.458;2024-02-23T00:39:24;3;3;
29062;PMS5003;71206;48.564;-123.458;2024-02-23T00:41:49;2;2;
29062;PMS5003;71206;48.564;-123.458;2024-02-23T00:44:14;1;1;
29062;PMS5003;71206;48.564;-123.458;2024-02-23T00:46:39;1;1;
29062;PMS5003;71206;48.564;-123.458;2024-02-23T00:49:05;3;2;
29062;PMS5003;71206;48.564;-123.458;2024-02-23T00:51:29;12;11;
29062;PMS5003;71206;48.564;-123.458;2024-02-23T00:53:54;13;10;
29062;PMS5003;71206;48.564;-123.458;2024-02-23T00:56:20;12;11;
29062;PMS5003;71206;48.564;-123.458;2024-02-23T00:58:45;3;3;
29062;PMS5003;71206;48.564;-123.458;2024-02-23T01:01:10;1;1;
29062;PMS5003;71206;48.564;-123.458;2024-02-23T01:03:36;2;1;
29062;PMS5003;71206;48.564;-123.458;2024-02-23T01:06:00;1;1;
29062;PMS5003;71206;48.564;-123.458;2024-02-23T01:08:25;2;1;
29062;PMS5003;71206;48.564;-123.458;2024-02-23T01:10:51;0;0;
29062;PMS5003;71206;48.564;-123.458;2024-02-23T01:13:18;2;2;
29062;PMS5003;71206;48.564;-123.458;2024-02-23T01:15:41;2;1;
29062;PMS5003;71206;48.564;-123.458;2024-02-23T01:18:06;1;1;
29062;PMS5003;71206;48.564;-123.458;2024-02-23T01:20:31;3;3;
29062;PMS5003;71206;48.564;-123.458;2024-02-23T01:22:57;5;5;
29062;PMS5003;71206;48.564;-123.458;2024-02-23T01:25:21;2;2;
29062;PMS5003;71206;48.564;-123.458;2024-02-23T01:27:47;4;3;
29062;PMS5003;71206;48.564;-123.458;2024-02-23T01:30:12;3;3;
29062;PMS5003;71206;48.564;-123.458;2024-02-23T01:32:38;2;2;
29062;PMS5003;71206;48.564;-123.458;2024-02-23T01:35:02;5;4;
29062;PMS5003;71206;48.564;-123.458;2024-02-23T01:37:27;3;3;
29062;PMS5003;71206;48.564;-123.458;2024-02-23T01:39:53;2;2;
29062;PMS5003;71206;48.564;-123.458;2024-02-23T01:42:18;5;3;
29062;PMS5003;71206;48.564;-123.458;2024-02-23T01:44:43;3;3;
29062;PMS5003;71206;48.564;-123.458;2024-02-23T01:47:08;5;4;
29062;PMS5003;71206;48.564;-123.458;2024-02-23T01:49:34;3;3;
29062;PMS5003;71206;48.564;-123.458;2024-02-23T01:51:59;2;2;
29062;PMS5003;71206;48.564;-123.458;2024-02-23T01:54:27;6;5;
29062;PMS5003;71206;48.564;-123.458;2024-02-23T01:56:52;3;3;
29062;PMS5003;71206;48.564;-123.458;2024-02-23T01:59:15;5;4;
29062;PMS5003;71206;48.564;-123.458;2024-02-23T02:01:40;3;3;
29062;PMS5003;71206;48.564;-123.458;2024-02-23T02:04:05;3;3;
29062;PMS5003;71206;48.564;-123.458;2024-02-23T02:06:30;4;3;
29062;PMS5003;71206;48.564;-123.458;2024-02-23T02:08:58;4;3;
29062;PMS5003;71206;48.564;-123.458;2024-02-23T02:11:21;5;4;
29062;PMS5003;71206;48.564;-123.458;2024-02-23T02:13:46;4;4;
29062;PMS5003;71206;48.564;-123.458;2024-02-23T02:16:11;7;4;
29062;PMS5003;71206;48.564;-123.458;2024-02-23T02:18:36;5;5;
29062;PMS5003;71206;48.564;-123.458;2024-02-23T02:21:02;7;7;
29062;PMS5003;71206;48.564;-123.458;2024-02-23T02:23:29;8;7;
29062;PMS5003;71206;48.564;-123.458;2024-02-23T02:25:52;9;8;
29062;PMS5003;71206;48.564;-123.458;2024-02-23T02:28:17;3;3;
29062;PMS5003;71206;48.564;-123.458;2024-02-23T02:30:44;4;3;
29062;PMS5003;71206;48.564;-123.458;2024-02-23T02:33:10;4;3;
29062;PMS5003;71206;48.564;-123.458;2024-02-23T02:35:33;4;4;
29062;PMS5003;71206;48.564;-123.458;2024-02-23T02:37:58;4;4;
29062;PMS5003;71206;48.564;-123.458;2024-02-23T02:40:23;7;4;
29062;PMS5003;71206;48.564;-123.458;2024-02-23T02:42:49;4;4;
29062;PMS5003;71206;48.564;-123.458;2024-02-23T02:45:14;4;2;
29062;PMS5003;71206;48.564;-123.458;2024-02-23T02:47:39;4;4;
29062;PMS5003;71206;48.564;-123.458;2024-02-23T02:50:05;3;3;
29062;PMS5003;71206;48.564;-123.458;2024-02-23T02:52:29;8;7;
29062;PMS5003;71206;48.564;-123.458;2024-02-23T02:54:55;4;4;
29062;PMS5003;71206;48.564;-123.458;2024-02-23T02:57:20;4;4;
29062;PMS5003;71206;48.564;-123.458;2024-02-23T02:59:52;10;9;
29062;PMS5003;71206;48.564;-123.458;2024-02-23T03:02:11;8;5;
29062;PMS5003;71206;48.564;-123.458;2024-02-23T03:04:36;4;4;
29062;PMS5003;71206;48.564;-123.458;2024-02-23T03:07:01;5;4;
29062;PMS5003;71206;48.564;-123.458;2024-02-23T03:09:28;4;4;
29062;PMS5003;71206;48.564;-123.458;2024-02-23T03:11:51;5;4;
29062;PMS5003;71206;48.564;-123.458;2024-02-23T03:14:17;8;8;
29062;PMS5003;71206;48.564;-123.458;2024-02-23T03:16:42;8;7;
29062;PMS5003;71206;48.564;-123.458;2024-02-23T03:19:07;8;7;
29062;PMS5003;71206;48.564;-123.458;2024-02-23T03:21:33;13;10;
29062;PMS5003;71206;48.564;-123.458;2024-02-23T03:23:59;20;20;
29062;PMS5003;71206;48.564;-123.458;2024-02-23T03:26:24;22;19;
29062;PMS5003;71206;48.564;-123.458;2024-02-23T03:28:50;15;15;
29062;PMS5003;71206;48.564;-123.458;2024-02-23T03:31:15;22;20;
29062;PMS5003;71206;48.564;-123.458;2024-02-23T03:33:40;24;24;
29062;PMS5003;71206;48.564;-123.458;2024-02-23T03:36:05;22;21;
29062;PMS5003;71206;48.564;-123.458;2024-02-23T03:38:30;43;34;
29062;PMS5003;71206;48.564;-123.458;2024-02-23T03:40:56;39;36;
29062;PMS5003;71206;48.564;-123.458;2024-02-23T03:43:22;39;38;
29062;PMS5003;71206;48.564;-123.458;2024-02-23T03:45:47;44;38;
29062;PMS5003;71206;48.564;-123.458;2024-02-23T03:48:12;40;37;
29062;PMS5003;71206;48.564;-123.458;2024-02-23T03:50:43;39;37;
29062;PMS5003;71206;48.564;-123.458;2024-02-23T03:53:04;30;25;
29062;PMS5003;71206;48.564;-123.458;2024-02-23T03:55:28;33;28;
29062;PMS5003;71206;48.564;-123.458;2024-02-23T03:57:55;27;24;
29062;PMS5003;71206;48.564;-123.458;2024-02-23T04:00:20;31;30;
29062;PMS5003;71206;48.564;-123.458;2024-02-23T04:02:47;34;33;
29062;PMS5003;71206;48.564;-123.458;2024-02-23T04:05:11;31;29;
29062;PMS5003;71206;48.564;-123.458;2024-02-23T04:07:37;44;43;
29062;PMS5003;71206;48.564;-123.458;2024-02-23T04:10:01;32;30;
29062;PMS5003;71206;48.564;-123.458;2024-02-23T04:12:27;33;30;
29062;PMS5003;71206;48.564;-123.458;2024-02-23T04:14:52;31;31;
29062;PMS5003;71206;48.564;-123.458;2024-02-23T04:17:17;44;38;
29062;PMS5003;71206;48.564;-123.458;2024-02-23T04:19:43;41;35;
29062;PMS5003;71206;48.564;-123.458;2024-02-23T04:22:08;35;32;
29062;PMS5003;71206;48.564;-123.458;2024-02-23T04:24:34;30;24;
29062;PMS5003;71206;48.564;-123.458;2024-02-23T04:26:59;29;26;
29062;PMS5003;71206;48.564;-123.458;2024-02-23T04:29:24;27;26;
29062;PMS5003;71206;48.564;-123.458;2024-02-23T04:31:49;29;25;
29062;PMS5003;71206;48.564;-123.458;2024-02-23T04:34:15;27;21;
29062;PMS5003;71206;48.564;-123.458;2024-02-23T04:36:40;25;20;
29062;PMS5003;71206;48.564;-123.458;2024-02-23T04:39:05;26;21;
29062;PMS5003;71206;48.564;-123.458;2024-02-23T04:41:30;26;24;
29062;PMS5003;71206;48.564;-123.458;2024-02-23T04:43:57;17;15;
29062;PMS5003;71206;48.564;-123.458;2024-02-23T04:46:21;41;37;
29062;PMS5003;71206;48.564;-123.458;2024-02-23T04:48:46;50;46;
29062;PMS5003;71206;48.564;-123.458;2024-02-23T04:51:18;19;17;
29062;PMS5003;71206;48.564;-123.458;2024-02-23T04:53:37;15;14;
29062;PMS5003;71206;48.564;-123.458;2024-02-23T04:56:03;42;35;
29062;PMS5003;71206;48.564;-123.458;2024-02-23T04:58:28;35;31;
29062;PMS5003;71206;48.564;-123.458;2024-02-23T05:00:53;26;24;
29062;PMS5003;71206;48.564;-123.458;2024-02-23T05:03:19;28;25;
29062;PMS5003;71206;48.564;-123.458;2024-02-23T05:05:44;23;20;
29062;PMS5003;71206;48.564;-123.458;2024-02-23T05:08:10;19;18;
29062;PMS5003;71206;48.564;-123.458;2024-02-23T05:10:34;24;23;
29062;PMS5003;71206;48.564;-123.458;2024-02-23T05:12:59;23;18;
29062;PMS5003;71206;48.564;-123.458;2024-02-23T05:15:25;17;15;
29062;PMS5003;71206;48.564;-123.458;2024-02-23T05:17:50;18;17;
29062;PMS5003;71206;48.564;-123.458;2024-02-23T05:20:16;22;20;
29062;PMS5003;71206;48.564;-123.458;2024-02-23T05:22:41;23;18;
29062;PMS5003;71206;48.564;-123.458;2024-02-23T05:25:07;9;9;
29062;PMS5003;71206;48.564;-123.458;2024-02-23T05:27:32;14;13;
29062;PMS5003;71206;48.564;-123.458;2024-02-23T05:29:57;13;13;
29062;PMS5003;71206;48.564;-123.458;2024-02-23T05:32:22;13;12;
29062;PMS5003;71206;48.564;-123.458;2024-02-23T05:34:47;14;12;
29062;PMS5003;71206;48.564;-123.458;2024-02-23T05:37:13;8;8;
29062;PMS5003;71206;48.564;-123.458;2024-02-23T05:39:39;9;8;
29062;PMS5003;71206;48.564;-123.458;2024-02-23T05:42:04;9;8;
29062;PMS5003;71206;48.564;-123.458;2024-02-23T05:44:29;9;8;
29062;PMS5003;71206;48.564;-123.458;2024-02-23T05:46:59;11;11;
29062;PMS5003;71206;48.564;-123.458;2024-02-23T05:49:20;8;8;
29062;PMS5003;71206;48.564;-123.458;2024-02-23T05:51:44;8;8;
29062;PMS5003;71206;48.564;-123.458;2024-02-23T05:54:11;8;8;
29062;PMS5003;71206;48.564;-123.458;2024-02-23T05:56:35;9;8;
29062;PMS5003;71206;48.564;-123.458;2024-02-23T05:59:00;13;12;
29062;PMS5003;71206;48.564;-123.458;2024-02-23T06:01:26;13;11;
29062;PMS5003;71206;48.564;-123.458;2024-02-23T06:03:51;36;33;
29062;PMS5003;71206;48.564;-123.458;2024-02-23T06:06:17;21;21;
29062;PMS5003;71206;48.564;-123.458;2024-02-23T06:08:42;24;21;
29062;PMS5003;71206;48.564;-123.458;2024-02-23T06:11:09;23;21;
29062;PMS5003;71206;48.564;-123.458;2024-02-23T06:13:33;29;26;
29062;PMS5003;71206;48.564;-123.458;2024-02-23T06:15:58;21;19;
29062;PMS5003;71206;48.564;-123.458;2024-02-23T06:18:25;21;18;
29062;PMS5003;71206;48.564;-123.458;2024-02-23T06:20:50;23;22;
29062;PMS5003;71206;48.564;-123.458;2024-02-23T06:23:14;23;17;
29062;PMS5003;71206;48.564;-123.458;2024-02-23T06:25:39;16;16;
29062;PMS5003;71206;48.564;-123.458;2024-02-23T06:28:06;16;12;
29062;PMS5003;71206;48.564;-123.458;2024-02-23T06:30:29;13;13;
29062;PMS5003;71206;48.564;-123.458;2024-02-23T06:32:55;13;12;
29062;PMS5003;71206;48.564;-123.458;2024-02-23T06:35:20;9;8;
29062;PMS5003;71206;48.564;-123.458;2024-02-23T06:37:45;11;9;
29062;PMS5003;71206;48.564;-123.458;2024-02-23T06:40:11;12;9;
29062;PMS5003;71206;48.564;-123.458;2024-02-23T06:42:36;9;9;
29062;PMS5003;71206;48.564;-123.458;2024-02-23T06:45:01;14;12;
29062;PMS5003;71206;48.564;-123.458;2024-02-23T06:47:28;12;11;
29062;PMS5003;71206;48.564;-123.458;2024-02-23T06:49:54;9;9;
29062;PMS5003;71206;48.564;-123.458;2024-02-23T06:52:17;8;8;
29062;PMS5003;71206;48.564;-123.458;2024-02-23T06:54:43;7;7;
29062;PMS5003;71206;48.564;-123.458;2024-02-23T06:57:08;8;8;
29062;PMS5003;71206;48.564;-123.458;2024-02-23T06:59:35;8;8;
29062;PMS5003;71206;48.564;-123.458;2024-02-23T07:01:59;11;8;
29062;PMS5003;71206;48.564;-123.458;2024-02-23T07:04:34;10;10;
29062;PMS5003;71206;48.564;-123.458;2024-02-23T07:06:49;10;8;
29062;PMS5003;71206;48.564;-123.458;2024-02-23T07:09:16;11;10;
29062;PMS5003;71206;48.564;-123.458;2024-02-23T07:11:40;12;11;
29062;PMS5003;71206;48.564;-123.458;2024-02-23T07:14:05;10;8;
29062;PMS5003;71206;48.564;-123.458;2024-02-23T07:16:31;10;10;
29062;PMS5003;71206;48.564;-123.458;2024-02-23T07:18:56;10;10;
29062;PMS5003;71206;48.564;-123.458;2024-02-23T07:21:21;11;11;
29062;PMS5003;71206;48.564;-123.458;2024-02-23T07:23:47;16;11;
29062;PMS5003;71206;48.564;-123.458;2024-02-23T07:26:12;12;10;
29062;PMS5003;71206;48.564;-123.458;2024-02-23T07:28:45;10;10;
29062;PMS5003;71206;48.564;-123.458;2024-02-23T07:31:03;17;13;
29062;PMS5003;71206;48.564;-123.458;2024-02-23T07:33:30;28;24;
29062;PMS5003;71206;48.564;-123.458;2024-02-23T07:35:53;20;17;
29062;PMS5003;71206;48.564;-123.458;2024-02-23T07:38:19;14;14;
29062;PMS5003;71206;48.564;-123.458;2024-02-23T07:40:54;16;15;
29062;PMS5003;71206;48.564;-123.458;2024-02-23T07:43:09;13;12;
29062;PMS5003;71206;48.564;-123.458;2024-02-23T07:45:35;15;12;
29062;PMS5003;71206;48.564;-123.458;2024-02-23T07:48:00;16;12;
29062;PMS5003;71206;48.564;-123.458;2024-02-23T07:50:26;15;13;
29062;PMS5003;71206;48.564;-123.458;2024-02-23T07:52:51;13;11;
29062;PMS5003;71206;48.564;-123.458;2024-02-23T07:55:16;13;11;
29062;PMS5003;71206;48.564;-123.458;2024-02-23T07:57:42;13;13;
29062;PMS5003;71206;48.564;-123.458;2024-02-23T08:00:07;12;12;
29062;PMS5003;71206;48.564;-123.458;2024-02-23T08:02:32;15;13;
29062;PMS5003;71206;48.564;-123.458;2024-02-23T08:04:58;11;11;
29062;PMS5003;71206;48.564;-123.458;2024-02-23T08:07:23;11;11;
29062;PMS5003;71206;48.564;-123.458;2024-02-23T08:09:48;18;11;
29062;PMS5003;71206;48.564;-123.458;2024-02-23T08:12:14;18;12;
29062;PMS5003;71206;48.564;-123.458;2024-02-23T08:14:39;15;10;
29062;PMS5003;71206;48.564;-123.458;2024-02-23T08:17:05;12;10;
29062;PMS5003;71206;48.564;-123.458;2024-02-23T08:19:29;13;11;
29062;PMS5003;71206;48.564;-123.458;2024-02-23T08:21:55;17;16;
29062;PMS5003;71206;48.564;-123.458;2024-02-23T08:24:21;13;13;
29062;PMS5003;71206;48.564;-123.458;2024-02-23T08:26:45;15;13;
29062;PMS5003;71206;48.564;-123.458;2024-02-23T08:29:10;17;15;
29062;PMS5003;71206;48.564;-123.458;2024-02-23T08:31:36;16;15;
29062;PMS5003;71206;48.564;-123.458;2024-02-23T08:34:01;11;11;
29062;PMS5003;71206;48.564;-123.458;2024-02-23T08:36:26;8;8;
29062;PMS5003;71206;48.564;-123.458;2024-02-23T08:38:53;11;11;
29062;PMS5003;71206;48.564;-123.458;2024-02-23T08:41:17;17;14;
29062;PMS5003;71206;48.564;-123.458;2024-02-23T08:43:43;35;27;
29062;PMS5003;71206;48.564;-123.458;2024-02-23T08:46:08;32;31;
29062;PMS5003;71206;48.564;-123.458;2024-02-23T08:48:34;25;20;
29062;PMS5003;71206;48.564;-123.458;2024-02-23T08:50:59;27;22;
29062;PMS5003;71206;48.564;-123.458;2024-02-23T08:53:26;11;11;
29062;PMS5003;71206;48.564;-123.458;2024-02-23T08:55:51;11;9;
29062;PMS5003;71206;48.564;-123.458;2024-02-23T08:58:17;8;8;
29062;PMS5003;71206;48.564;-123.458;2024-02-23T09:00:41;12;12;
29062;PMS5003;71206;48.564;-123.458;2024-02-23T09:03:07;7;6;
29062;PMS5003;71206;48.564;-123.458;2024-02-23T09:05:32;12;11;
29062;PMS5003;71206;48.564;-123.458;2024-02-23T09:07:58;8;8;
29062;PMS5003;71206;48.564;-123.458;2024-02-23T09:10:23;8;8;
29062;PMS5003;71206;48.564;-123.458;2024-02-23T09:12:48;14;12;
29062;PMS5003;71206;48.564;-123.458;2024-02-23T09:15:14;12;11;
29062;PMS5003;71206;48.564;-123.458;2024-02-23T09:17:40;32;25;
29062;PMS5003;71206;48.564;-123.458;2024-02-23T09:20:05;26;22;
29062;PMS5003;71206;48.564;-123.458;2024-02-23T09:22:30;38;30;
29062;PMS5003;71206;48.564;-123.458;2024-02-23T09:25:00;27;21;
29062;PMS5003;71206;48.564;-123.458;2024-02-23T09:27:21;31;25;
29062;PMS5003;71206;48.564;-123.458;2024-02-23T09:29:46;48;35;
29062;PMS5003;71206;48.564;-123.458;2024-02-23T09:32:12;43;31;
29062;PMS5003;71206;48.564;-123.458;2024-02-23T09:34:37;26;22;
29062;PMS5003;71206;48.564;-123.458;2024-02-23T09:37:04;26;22;
29062;PMS5003;71206;48.564;-123.458;2024-02-23T09:39:29;23;18;
29062;PMS5003;71206;48.564;-123.458;2024-02-23T09:41:54;22;22;
29062;PMS5003;71206;48.564;-123.458;2024-02-23T09:44:20;28;23;
29062;PMS5003;71206;48.564;-123.458;2024-02-23T09:46:44;17;11;
29062;PMS5003;71206;48.564;-123.458;2024-02-23T09:49:10;17;15;
29062;PMS5003;71206;48.564;-123.458;2024-02-23T09:51:35;17;12;
29062;PMS5003;71206;48.564;-123.458;2024-02-23T09:54:00;11;10;
29062;PMS5003;71206;48.564;-123.458;2024-02-23T09:56:27;13;12;
29062;PMS5003;71206;48.564;-123.458;2024-02-23T09:58:51;11;11;
29062;PMS5003;71206;48.564;-123.458;2024-02-23T10:01:20;15;11;
29062;PMS5003;71206;48.564;-123.458;2024-02-23T10:03:41;17;12;
29062;PMS5003;71206;48.564;-123.458;2024-02-23T10:06:06;19;16;
29062;PMS5003;71206;48.564;-123.458;2024-02-23T10:08:32;11;9;
29062;PMS5003;71206;48.564;-123.458;2024-02-23T10:10:57;6;6;
29062;PMS5003;71206;48.564;-123.458;2024-02-23T10:13:31;6;6;
29062;PMS5003;71206;48.564;-123.458;2024-02-23T10:15:49;11;8;
29062;PMS5003;71206;48.564;-123.458;2024-02-23T10:18:13;8;8;
29062;PMS5003;71206;48.564;-123.458;2024-02-23T10:20:39;11;11;
29062;PMS5003;71206;48.564;-123.458;2024-02-23T10:23:04;6;6;
29062;PMS5003;71206;48.564;-123.458;2024-02-23T10:25:29;9;7;
29062;PMS5003;71206;48.564;-123.458;2024-02-23T10:27:55;12;9;
29062;PMS5003;71206;48.564;-123.458;2024-02-23T10:30:20;7;7;
29062;PMS5003;71206;48.564;-123.458;2024-02-23T10:32:45;7;6;
29062;PMS5003;71206;48.564;-123.458;2024-02-23T10:35:13;8;7;
29062;PMS5003;71206;48.564;-123.458;2024-02-23T10:37:36;7;6;
29062;PMS5003;71206;48.564;-123.458;2024-02-23T10:40:02;8;6;
29062;PMS5003;71206;48.564;-123.458;2024-02-23T10:42:27;9;8;
29062;PMS5003;71206;48.564;-123.458;2024-02-23T10:44:53;6;6;
29062;PMS5003;71206;48.564;-123.458;2024-02-23T10:47:18;7;7;
29062;PMS5003;71206;48.564;-123.458;2024-02-23T10:49:43;8;7;
29062;PMS5003;71206;48.564;-123.458;2024-02-23T10:52:08;8;8;
29062;PMS5003;71206;48.564;-123.458;2024-02-23T10:54:34;9;8;
29062;PMS5003;71206;48.564;-123.458;2024-02-23T10:56:59;9;8;
29062;PMS5003;71206;48.564;-123.458;2024-02-23T10:59:25;8;8;
29062;PMS5003;71206;48.564;-123.458;2024-02-23T11:01:50;7;6;
29062;PMS5003;71206;48.564;-123.458;2024-02-23T11:04:16;11;8;
29062;PMS5003;71206;48.564;-123.458;2024-02-23T11:06:43;9;9;
29062;PMS5003;71206;48.564;-123.458;2024-02-23T11:09:06;8;7;
29062;PMS5003;71206;48.564;-123.458;2024-02-23T11:11:32;8;8;
29062;PMS5003;71206;48.564;-123.458;2024-02-23T11:13:57;12;9;
29062;PMS5003;71206;48.564;-123.458;2024-02-23T11:16:23;8;7;
29062;PMS5003;71206;48.564;-123.458;2024-02-23T11:18:49;7;6;
29062;PMS5003;71206;48.564;-123.458;2024-02-23T11:21:13;8;7;
29062;PMS5003;71206;48.564;-123.458;2024-02-23T11:23:40;8;7;
29062;PMS5003;71206;48.564;-123.458;2024-02-23T11:26:05;8;8;
29062;PMS5003;71206;48.564;-123.458;2024-02-23T11:28:29;9;9;
29062;PMS5003;71206;48.564;-123.458;2024-02-23T11:30:54;13;11;
29062;PMS5003;71206;48.564;-123.458;2024-02-23T11:35:46;8;8;
29062;PMS5003;71206;48.564;-123.458;2024-02-23T11:38:10;12;11;
29062;PMS5003;71206;48.564;-123.458;2024-02-23T11:40:36;9;9;
29062;PMS5003;71206;48.564;-123.458;2024-02-23T11:43:01;7;7;
29062;PMS5003;71206;48.564;-123.458;2024-02-23T11:45:26;8;8;
29062;PMS5003;71206;48.564;-123.458;2024-02-23T11:47:51;12;8;
29062;PMS5003;71206;48.564;-123.458;2024-02-23T11:50:17;9;8;
29062;PMS5003;71206;48.564;-123.458;2024-02-23T11:52:42;8;8;
29062;PMS5003;71206;48.564;-123.458;2024-02-23T11:55:07;8;7;
29062;PMS5003;71206;48.564;-123.458;2024-02-23T11:57:33;11;9;
29062;PMS5003;71206;48.564;-123.458;2024-02-23T12:00:03;9;8;
29062;PMS5003;71206;48.564;-123.458;2024-02-23T12:02:23;9;8;
29062;PMS5003;71206;48.564;-123.458;2024-02-23T12:04:48;9;8;
29062;PMS5003;71206;48.564;-123.458;2024-02-23T12:07:14;60;50;
29062;PMS5003;71206;48.564;-123.458;2024-02-23T12:09:40;94;82;
29062;PMS5003;71206;48.564;-123.458;2024-02-23T12:12:06;160;123;
29062;PMS5003;71206;48.564;-123.458;2024-02-23T12:14:35;160;115;
29062;PMS5003;71206;48.564;-123.458;2024-02-23T12:16:57;71;55;
29062;PMS5003;71206;48.564;-123.458;2024-02-23T12:19:22;69;62;
29062;PMS5003;71206;48.564;-123.458;2024-02-23T12:21:47;63;52;
29062;PMS5003;71206;48.564;-123.458;2024-02-23T12:24:13;42;37;
29062;PMS5003;71206;48.564;-123.458;2024-02-23T12:26:38;17;15;
29062;PMS5003;71206;48.564;-123.458;2024-02-23T12:29:04;19;15;
29062;PMS5003;71206;48.564;-123.458;2024-02-23T12:31:30;13;13;
29062;PMS5003;71206;48.564;-123.458;2024-02-23T12:33:54;9;9;
29062;PMS5003;71206;48.564;-123.458;2024-02-23T12:36:19;8;6;
29062;PMS5003;71206;48.564;-123.458;2024-02-23T12:38:45;8;8;
29062;PMS5003;71206;48.564;-123.458;2024-02-23T12:41:10;10;8;
29062;PMS5003;71206;48.564;-123.458;2024-02-23T12:43:35;7;7;
29062;PMS5003;71206;48.564;-123.458;2024-02-23T12:46:06;8;8;
29062;PMS5003;71206;48.564;-123.458;2024-02-23T12:48:26;6;6;
29062;PMS5003;71206;48.564;-123.458;2024-02-23T12:50:51;7;6;
29062;PMS5003;71206;48.564;-123.458;2024-02-23T12:55:42;9;8;
29062;PMS5003;71206;48.564;-123.458;2024-02-23T12:58:08;6;6;
29062;PMS5003;71206;48.564;-123.458;2024-02-23T13:00:33;7;4;
29062;PMS5003;71206;48.564;-123.458;2024-02-23T13:02:58;7;7;
29062;PMS5003;71206;48.564;-123.458;2024-02-23T13:05:23;8;7;
29062;PMS5003;71206;48.564;-123.458;2024-02-23T13:07:49;7;6;
29062;PMS5003;71206;48.564;-123.458;2024-02-23T13:10:14;9;9;
29062;PMS5003;71206;48.564;-123.458;2024-02-23T13:12:44;11;8;
29062;PMS5003;71206;48.564;-123.458;2024-02-23T13:15:05;9;9;
29062;PMS5003;71206;48.564;-123.458;2024-02-23T13:17:31;8;8;
29062;PMS5003;71206;48.564;-123.458;2024-02-23T13:19:56;8;8;
29062;PMS5003;71206;48.564;-123.458;2024-02-23T13:22:21;12;9;
29062;PMS5003;71206;48.564;-123.458;2024-02-23T13:24:46;11;7;
29062;PMS5003;71206;48.564;-123.458;2024-02-23T13:27:12;7;6;
29062;PMS5003;71206;48.564;-123.458;2024-02-23T13:29:38;7;6;
29062;PMS5003;71206;48.564;-123.458;2024-02-23T13:32:02;7;7;
29062;PMS5003;71206;48.564;-123.458;2024-02-23T13:34:28;6;6;
29062;PMS5003;71206;48.564;-123.458;2024-02-23T13:36:53;8;8;
29062;PMS5003;71206;48.564;-123.458;2024-02-23T13:39:18;7;6;
29062;PMS5003;71206;48.564;-123.458;2024-02-23T13:41:44;13;8;
29062;PMS5003;71206;48.564;-123.458;2024-02-23T13:44:11;7;7;
29062;PMS5003;71206;48.564;-123.458;2024-02-23T13:46:35;9;9;
29062;PMS5003;71206;48.564;-123.458;2024-02-23T13:49:04;8;8;
29062;PMS5003;71206;48.564;-123.458;2024-02-23T13:51:25;8;7;
29062;PMS5003;71206;48.564;-123.458;2024-02-23T13:53:51;8;7;
29062;PMS5003;71206;48.564;-123.458;2024-02-23T13:56:17;7;7;
29062;PMS5003;71206;48.564;-123.458;2024-02-23T13:58:42;9;8;
29062;PMS5003;71206;48.564;-123.458;2024-02-23T14:01:08;8;8;
29062;PMS5003;71206;48.564;-123.458;2024-02-23T14:03:34;7;7;
29062;PMS5003;71206;48.564;-123.458;2024-02-23T14:05:59;7;7;
29062;PMS5003;71206;48.564;-123.458;2024-02-23T14:08:25;12;11;
29062;PMS5003;71206;48.564;-123.458;2024-02-23T14:10:50;9;9;
29062;PMS5003;71206;48.564;-123.458;2024-02-23T14:13:15;7;6;
29062;PMS5003;71206;48.564;-123.458;2024-02-23T14:15:41;8;7;
29062;PMS5003;71206;48.564;-123.458;2024-02-23T14:18:06;7;7;
29062;PMS5003;71206;48.564;-123.458;2024-02-23T14:20:32;3;3;
29062;PMS5003;71206;48.564;-123.458;2024-02-23T14:22:57;8;7;
29062;PMS5003;71206;48.564;-123.458;2024-02-23T14:25:23;7;7;
29062;PMS5003;71206;48.564;-123.458;2024-02-23T14:27:49;9;8;
29062;PMS5003;71206;48.564;-123.458;2024-02-23T14:30:14;6;6;
29062;PMS5003;71206;48.564;-123.458;2024-02-23T14:32:39;9;7;
29062;PMS5003;71206;48.564;-123.458;2024-02-23T14:35:05;7;7;
29062;PMS5003;71206;48.564;-123.458;2024-02-23T14:37:30;7;6;
29062;PMS5003;71206;48.564;-123.458;2024-02-23T14:39:55;7;7;
29062;PMS5003;71206;48.564;-123.458;2024-02-23T14:42:21;9;8;
29062;PMS5003;71206;48.564;-123.458;2024-02-23T14:44:46;8;7;
29062;PMS5003;71206;48.564;-123.458;2024-02-23T14:47:12;7;6;
29062;PMS5003;71206;48.564;-123.458;2024-02-23T14:49:37;7;7;
29062;PMS5003;71206;48.564;-123.458;2024-02-23T14:52:07;7;7;
29062;PMS5003;71206;48.564;-123.458;2024-02-23T14:54:27;7;7;
29062;PMS5003;71206;48.564;-123.458;2024-02-23T14:56:53;7;7;
29062;PMS5003;71206;48.564;-123.458;2024-02-23T14:59:18;6;6;
29062;PMS5003;71206;48.564;-123.458;2024-02-23T15:01:43;13;11;
29062;PMS5003;71206;48.564;-123.458;2024-02-23T15:04:09;8;8;
29062;PMS5003;71206;48.564;-123.458;2024-02-23T15:06:34;10;10;
29062;PMS5003;71206;48.564;-123.458;2024-02-23T15:08:59;9;8;
29062;PMS5003;71206;48.564;-123.458;2024-02-23T15:11:24;9;8;
29062;PMS5003;71206;48.564;-123.458;2024-02-23T15:13:51;8;8;
29062;PMS5003;71206;48.564;-123.458;2024-02-23T15:16:18;8;8;
29062;PMS5003;71206;48.564;-123.458;2024-02-23T15:18:40;11;9;
29062;PMS5003;71206;48.564;-123.458;2024-02-23T15:21:06;9;8;
29062;PMS5003;71206;48.564;-123.458;2024-02-23T15:23:31;7;7;
29062;PMS5003;71206;48.564;-123.458;2024-02-23T15:25:58;9;9;
29062;PMS5003;71206;48.564;-123.458;2024-02-23T15:28:22;7;7;
29062;PMS5003;71206;48.564;-123.458;2024-02-23T15:30:48;8;8;
29062;PMS5003;71206;48.564;-123.458;2024-02-23T15:33:13;9;9;
29062;PMS5003;71206;48.564;-123.458;2024-02-23T15:35:39;13;11;
29062;PMS5003;71206;48.564;-123.458;2024-02-23T15:38:03;6;6;